Time;durP1;ratioP1;P1;durP2;ratioP2;P2;SDS_P1;SDS_P2;PMS_P1;PMS_P2;Temp;Humidity;BMP_temperature;BMP_pressure;BME280_temperature;BME280_humidity;BME280_pressure;Samples;Min_cycle;Max_cycle;Signal;HPM_P1;HPM_P2
2023/08/02 00:01:12;;;;;;;2.67;1.50;;;;;;;16.68;87.63;99254.47;5050767;28;20209;-85
2023/08/02 00:03:40;;;;;;;2.87;1.70;;;;;;;16.68;88.15;99230.75;5048379;28;20206;-83
2023/08/02 00:06:06;;;;;;;3.37;1.87;;;;;;;16.67;87.85;99234.34;5042154;28;20213;-83
2023/08/02 00:08:33;;;;;;;3.27;1.93;;;;;;;16.69;87.16;99244.78;5042132;28;20206;-83
2023/08/02 00:11:00;;;;;;;4.17;1.90;;;;;;;16.64;87.79;99234.53;5059623;28;20227;-83
2023/08/02 00:13:26;;;;;;;3.37;1.30;;;;;;;16.66;88.73;99223.88;5062284;28;20571;-84
2023/08/02 00:15:52;;;;;;;5.67;1.93;;;;;;;16.65;88.05;99224.84;5062359;28;20212;-85
2023/08/02 00:18:19;;;;;;;2.20;1.60;;;;;;;16.67;87.49;99236.97;5062487;28;20216;-83
2023/08/02 00:20:47;;;;;;;3.80;2.07;;;;;;;16.71;87.64;99234.13;5054525;28;20236;-86
2023/08/02 00:23:13;;;;;;;2.83;1.80;;;;;;;16.70;87.28;99237.72;5048966;28;20209;-83
2023/08/02 00:25:40;;;;;;;2.73;1.90;;;;;;;16.70;87.40;99241.19;5041568;28;20213;-84
2023/08/02 00:28:06;;;;;;;2.47;2.23;;;;;;;16.62;87.33;99241.69;5052260;28;20248;-86
2023/08/02 00:30:32;;;;;;;2.60;2.00;;;;;;;16.56;87.08;99238.59;5051195;28;20247;-83
2023/08/02 00:32:59;;;;;;;5.10;2.43;;;;;;;16.65;86.86;99252.03;5042615;28;20212;-84
2023/08/02 00:35:26;;;;;;;2.53;1.70;;;;;;;16.60;87.17;99253.25;5049885;28;20210;-82
2023/08/02 00:37:53;;;;;;;4.20;1.73;;;;;;;16.64;87.02;99242.44;5050717;28;20674;-85
2023/08/02 00:40:24;;;;;;;3.47;2.20;;;;;;;16.58;86.81;99257.78;5041527;28;20228;-83
2023/08/02 00:42:51;;;;;;;3.47;1.93;;;;;;;16.32;87.06;99256.78;5044842;28;20216;-84
2023/08/02 00:45:17;;;;;;;2.50;2.03;;;;;;;16.46;87.14;99244.44;5060448;28;20214;-86
2023/08/02 00:47:44;;;;;;;3.63;2.03;;;;;;;16.44;87.23;99240.22;5055143;28;20217;-85
2023/08/02 00:50:10;;;;;;;3.20;1.90;;;;;;;16.52;87.17;99245.00;5055396;28;20255;-83
2023/08/02 00:52:37;;;;;;;3.17;2.00;;;;;;;16.48;87.40;99241.72;5053976;28;20230;-84
2023/08/02 00:55:06;;;;;;;3.40;1.93;;;;;;;16.40;86.77;99244.81;5048991;28;20680;-83
2023/08/02 00:57:33;;;;;;;2.57;1.80;;;;;;;16.41;87.54;99236.00;5042495;28;20205;-83
2023/08/02 00:59:59;;;;;;;3.70;2.07;;;;;;;16.35;87.57;99233.75;5055262;28;20232;-84
2023/08/02 01:02:26;;;;;;;4.37;2.33;;;;;;;16.39;87.27;99229.09;5048947;28;20211;-85
2023/08/02 01:04:52;;;;;;;3.47;2.30;;;;;;;16.45;87.09;99233.97;5050864;28;20217;-85
2023/08/02 01:07:24;;;;;;;6.33;2.17;;;;;;;16.51;86.77;99231.00;5041774;28;20202;-86
2023/08/02 01:09:55;;;;;;;3.70;1.90;;;;;;;16.57;86.24;99241.13;5061404;28;20908;-83
2023/08/02 01:12:25;;;;;;;6.10;1.77;;;;;;;16.56;86.28;99244.69;5048291;28;20202;-84
2023/08/02 01:14:55;;;;;;;4.87;2.20;;;;;;;16.49;86.24;99240.78;5053075;28;20208;-84
2023/08/02 01:17:24;;;;;;;3.43;2.23;;;;;;;16.51;87.20;99238.03;5048799;28;20195;-84
2023/08/02 01:19:50;;;;;;;2.27;1.80;;;;;;;16.48;86.97;99218.00;5050471;28;20288;-85
2023/08/02 01:22:18;;;;;;;5.80;2.53;;;;;;;16.54;86.64;99233.41;5043276;28;20209;-84
2023/08/02 01:24:44;;;;;;;3.03;2.00;;;;;;;16.47;86.61;99227.69;5060051;28;20198;-86
2023/08/02 01:27:16;;;;;;;5.73;1.97;;;;;;;16.52;87.09;99224.75;5045627;28;20198;-85
2023/08/02 01:29:46;;;;;;;3.07;2.00;;;;;;;16.49;87.13;99211.81;5061867;28;20323;-87
2023/08/02 01:32:13;;;;;;;3.47;2.10;;;;;;;16.53;86.72;99204.53;5051732;28;20222;-85
2023/08/02 01:34:40;;;;;;;2.90;2.20;;;;;;;16.53;86.46;99217.69;5060500;28;20687;-83
2023/08/02 01:37:07;;;;;;;4.00;2.00;;;;;;;16.47;86.98;99213.66;5051582;28;20217;-85
2023/08/02 01:39:34;;;;;;;4.53;2.17;;;;;;;16.39;86.97;99211.53;5048892;28;20699;-83
2023/08/02 01:42:01;;;;;;;3.93;2.17;;;;;;;16.35;87.09;99198.63;5040942;28;20209;-85
2023/08/02 01:44:27;;;;;;;2.87;1.83;;;;;;;16.30;88.01;99174.41;5064837;28;20208;-84
2023/08/02 01:46:54;;;;;;;2.43;2.13;;;;;;;16.39;87.77;99169.41;5045901;28;20202;-86
2023/08/02 01:49:21;;;;;;;3.60;2.33;;;;;;;16.37;87.45;99175.69;5051053;28;20716;-83
2023/08/02 01:51:48;;;;;;;5.67;2.37;;;;;;;16.36;87.65;99171.38;5046648;28;20222;-83
2023/08/02 01:54:14;;;;;;;2.30;2.07;;;;;;;16.41;87.61;99172.78;5056063;28;20217;-85
2023/08/02 01:56:42;;;;;;;4.37;2.10;;;;;;;16.45;87.48;99176.03;5056988;28;20205;-86
2023/08/02 01:59:08;;;;;;;2.20;1.90;;;;;;;16.44;87.60;99177.84;5055892;28;20237;-85
2023/08/02 02:01:35;;;;;;;5.20;2.17;;;;;;;16.43;87.87;99163.00;5051693;28;20202;-85
2023/08/02 02:04:01;;;;;;;5.47;2.43;;;;;;;16.47;87.26;99164.47;5051378;28;20304;-84
2023/08/02 02:06:27;;;;;;;3.03;2.10;;;;;;;16.47;87.44;99168.88;5042739;28;20208;-85
2023/08/02 02:08:54;;;;;;;2.40;1.90;;;;;;;16.45;87.29;99165.50;5051801;28;20236;-84
2023/08/02 02:11:20;;;;;;;3.70;2.23;;;;;;;16.46;86.74;99169.84;5058961;28;20251;-85
2023/08/02 02:13:48;;;;;;;3.13;2.13;;;;;;;16.42;87.01;99168.34;5063178;28;20213;-85
2023/08/02 02:16:14;;;;;;;3.77;1.90;;;;;;;16.37;87.40;99163.38;5061702;28;20239;-85
2023/08/02 02:18:41;;;;;;;3.03;2.47;;;;;;;16.32;87.35;99172.50;5063029;28;20207;-86
2023/08/02 02:21:07;;;;;;;2.43;1.80;;;;;;;16.41;87.04;99159.59;5063300;28;20231;-86
2023/08/02 02:23:34;;;;;;;4.83;1.93;;;;;;;16.44;87.05;99172.56;5063237;28;20212;-85
2023/08/02 02:26:00;;;;;;;3.97;1.93;;;;;;;16.36;87.06;99177.47;5063806;28;20212;-87
2023/08/02 02:28:26;;;;;;;3.17;2.43;;;;;;;16.38;87.15;99177.38;5063859;28;20586;-86
2023/08/02 02:30:56;;;;;;;7.13;2.97;;;;;;;16.31;86.66;99190.06;5064086;28;20302;-86
2023/08/02 02:33:23;;;;;;;2.63;2.00;;;;;;;16.33;86.78;99185.56;5064179;28;20655;-85
2023/08/02 02:35:49;;;;;;;4.37;2.47;;;;;;;16.14;86.96;99195.56;5064790;28;20205;-86
2023/08/02 02:38:16;;;;;;;3.87;2.70;;;;;;;16.02;87.32;99182.22;5063959;28;20205;-85
2023/08/02 02:40:43;;;;;;;3.47;1.80;;;;;;;16.12;87.86;99168.50;5064403;28;20243;-85
2023/08/02 02:43:09;;;;;;;2.47;1.90;;;;;;;16.16;88.05;99149.78;5061448;28;20207;-83
2023/08/02 02:45:36;;;;;;;2.77;2.10;;;;;;;16.14;87.95;99159.56;5073947;28;20220;-84
2023/08/02 02:48:04;;;;;;;4.90;2.37;;;;;;;16.06;88.16;99159.19;5074542;28;20212;-84
2023/08/02 02:50:30;;;;;;;3.33;2.03;;;;;;;16.10;88.10;99163.31;5073419;28;20233;-83
2023/08/02 02:52:56;;;;;;;2.90;2.00;;;;;;;16.08;88.62;99146.78;5074247;28;20746;-84
2023/08/02 02:55:23;;;;;;;3.03;2.10;;;;;;;16.04;88.32;99142.66;5072622;28;20205;-82
2023/08/02 02:57:50;;;;;;;6.00;2.30;;;;;;;16.08;88.85;99139.72;5073072;28;20204;-84
2023/08/02 03:00:17;;;;;;;2.53;2.33;;;;;;;16.05;89.12;99136.44;5073244;28;20239;-86
2023/08/02 03:02:43;;;;;;;3.80;1.93;;;;;;;16.04;89.14;99134.75;5059235;28;20212;-84
2023/08/02 03:05:11;;;;;;;4.17;2.07;;;;;;;16.04;88.96;99138.22;5059716;28;20209;-82
2023/08/02 03:07:37;;;;;;;3.27;1.87;;;;;;;16.00;89.02;99141.97;5058219;28;20205;-84
2023/08/02 03:10:04;;;;;;;2.85;2.20;;;;;;;15.94;89.21;99131.00;5059502;28;20248;-84
2023/08/02 03:12:31;;;;;;;4.17;2.00;;;;;;;15.96;89.47;99114.16;5057061;28;20429;-84
2023/08/02 03:14:57;;;;;;;2.83;2.03;;;;;;;15.88;89.46;99111.19;5055428;28;20213;-84
2023/08/02 03:17:24;;;;;;;2.73;2.20;;;;;;;15.89;89.82;99110.22;5059158;28;20206;-84
2023/08/02 03:19:50;;;;;;;3.40;2.43;;;;;;;15.88;90.08;99104.13;5057939;28;20768;-84
2023/08/02 03:22:18;;;;;;;4.60;2.10;;;;;;;15.79;90.43;99091.53;5059159;28;20207;-83
2023/08/02 03:24:44;;;;;;;3.40;2.30;;;;;;;15.79;90.87;99082.78;5052379;28;20667;-84
2023/08/02 03:27:10;;;;;;;3.67;2.30;;;;;;;15.74;90.93;99072.56;5055010;28;20205;-83
2023/08/02 03:29:37;;;;;;;4.57;2.23;;;;;;;15.74;90.57;99072.56;5056012;28;20225;-83
2023/08/02 03:32:04;;;;;;;4.20;2.20;;;;;;;15.74;90.39;99077.81;5056056;28;20259;-83
2023/08/02 03:34:30;;;;;;;3.40;2.83;;;;;;;15.74;90.58;99076.97;5056298;28;20204;-84
2023/08/02 03:36:57;;;;;;;3.50;2.60;;;;;;;15.72;90.33;99076.19;5058128;28;20217;-84
2023/08/02 03:39:27;;;;;;;2.53;2.33;;;;;;;15.74;90.46;99080.47;5059753;28;20272;-85
2023/08/02 03:41:53;;;;;;;3.97;2.57;;;;;;;15.72;90.34;99089.31;5060814;28;20202;-84
2023/08/02 03:44:19;;;;;;;3.17;2.80;;;;;;;15.61;90.30;99085.59;5058204;28;20235;-84
2023/08/02 03:46:46;;;;;;;3.27;2.53;;;;;;;15.64;90.91;99085.41;5064844;28;20212;-83
2023/08/02 03:49:12;;;;;;;2.63;2.43;;;;;;;15.65;90.99;99079.19;5050019;28;20223;-82
2023/08/02 03:51:39;;;;;;;3.60;2.83;;;;;;;15.71;91.05;99063.97;5058209;28;20229;-83
2023/08/02 03:54:05;;;;;;;3.13;2.23;;;;;;;15.69;90.43;99067.53;5065381;28;20216;-84
2023/08/02 03:56:33;;;;;;;4.00;2.87;;;;;;;15.65;90.16;99076.56;5065808;28;20205;-85
2023/08/02 03:58:59;;;;;;;3.23;2.30;;;;;;;15.70;90.55;99060.50;5064654;28;20225;-82
2023/08/02 04:01:26;;;;;;;2.93;2.10;;;;;;;15.71;90.08;99058.72;5060577;28;20197;-84
2023/08/02 04:03:52;;;;;;;4.70;2.67;;;;;;;15.65;89.97;99062.56;5055301;28;20255;-85
2023/08/02 04:06:19;;;;;;;2.70;2.23;;;;;;;15.62;90.26;99053.09;5060708;28;20208;-82
2023/08/02 04:08:45;;;;;;;2.93;2.73;;;;;;;15.64;90.83;99040.69;5062758;28;20218;-86
2023/08/02 04:11:11;;;;;;;3.93;2.33;;;;;;;15.68;91.09;99029.03;5057571;28;20249;-82
2023/08/02 04:13:40;;;;;;;4.23;2.53;;;;;;;15.64;90.40;99040.69;5038753;28;20200;-80
2023/08/02 04:16:07;;;;;;;3.40;2.47;;;;;;;15.59;90.71;99034.03;5056313;28;20202;-82
2023/08/02 04:18:33;;;;;;;2.73;2.30;;;;;;;15.62;90.65;99039.94;5046169;28;20723;-84
2023/08/02 04:21:00;;;;;;;2.93;2.63;;;;;;;15.66;90.88;99027.44;5063048;28;20215;-86
2023/08/02 04:23:26;;;;;;;2.67;2.47;;;;;;;15.69;91.61;99019.34;5048190;28;20203;-83
2023/08/02 04:25:53;;;;;;;3.10;2.33;;;;;;;15.79;90.89;99019.66;5043250;28;20206;-82
2023/08/02 04:28:19;;;;;;;2.57;2.27;;;;;;;15.82;91.25;99030.00;5051218;28;20205;-81
2023/08/02 04:30:51;;;;;;;4.60;2.37;;;;;;;15.81;91.50;99026.50;5058471;28;20221;-82
2023/08/02 04:33:17;;;;;;;3.53;2.50;;;;;;;15.87;91.20;99026.09;5035175;28;20745;-81
2023/08/02 04:35:44;;;;;;;4.40;2.20;;;;;;;15.82;91.18;99028.19;5057151;28;20205;-81
2023/08/02 04:38:10;;;;;;;3.50;2.67;;;;;;;15.82;91.59;99017.66;5051004;28;20284;-81
2023/08/02 04:40:38;;;;;;;4.77;2.97;;;;;;;15.86;91.38;99006.00;5056815;28;20225;-84
2023/08/02 04:43:04;;;;;;;3.53;2.57;;;;;;;15.88;91.49;98995.38;5053663;28;20221;-81
2023/08/02 04:45:31;;;;;;;3.40;2.70;;;;;;;15.92;91.20;98996.03;5060367;28;20583;-84
2023/08/02 04:47:58;;;;;;;4.33;2.33;;;;;;;15.93;91.35;99003.81;5055752;28;20210;-82
2023/08/02 04:50:25;;;;;;;3.07;2.60;;;;;;;15.87;91.02;99009.47;5060064;28;20586;-82
2023/08/02 04:52:51;;;;;;;2.77;2.57;;;;;;;15.93;91.03;99001.19;5054888;28;20233;-80
2023/08/02 04:55:18;;;;;;;3.67;3.00;;;;;;;15.95;91.03;98994.03;5062152;28;20293;-81
2023/08/02 04:57:44;;;;;;;3.57;2.53;;;;;;;15.97;91.22;98992.16;5050024;28;20209;-80
2023/08/02 05:00:11;;;;;;;3.63;2.43;;;;;;;16.02;91.28;98986.59;5065025;28;20227;-80
2023/08/02 05:02:37;;;;;;;4.47;2.83;;;;;;;16.07;92.00;98963.44;5060334;28;20299;-80
2023/08/02 05:05:06;;;;;;;4.37;2.40;;;;;;;16.10;90.90;98976.41;5061468;28;20212;-82
2023/08/02 05:07:33;;;;;;;2.43;2.23;;;;;;;16.12;90.81;98984.22;5057094;28;20212;-80
2023/08/02 05:10:03;;;;;;;4.20;2.93;;;;;;;16.10;91.18;98986.94;5056173;28;20516;-79
2023/08/02 05:12:30;;;;;;;4.97;2.93;;;;;;;16.16;91.06;98976.00;5057027;28;20253;-80
2023/08/02 05:14:58;;;;;;;3.67;2.50;;;;;;;16.20;90.38;98977.50;5056251;28;20636;-80
2023/08/02 05:17:24;;;;;;;2.97;2.60;;;;;;;16.19;90.06;98998.66;5062492;28;20208;-80
2023/08/02 05:19:50;;;;;;;4.50;2.43;;;;;;;16.19;89.78;99007.38;5059433;28;20229;-80
2023/08/02 05:22:18;;;;;;;3.50;2.30;;;;;;;16.22;89.86;99020.38;5062278;28;20575;-80
2023/08/02 05:24:45;;;;;;;3.63;2.60;;;;;;;16.28;89.61;99022.59;5060439;28;20201;-80
2023/08/02 05:27:11;;;;;;;2.90;2.57;;;;;;;16.32;90.06;99017.97;5062060;28;20201;-81
2023/08/02 05:29:37;;;;;;;3.80;2.97;;;;;;;16.33;89.93;99006.47;5058458;28;20350;-79
2023/08/02 05:32:04;;;;;;;2.57;2.37;;;;;;;16.22;89.71;99017.72;5062676;28;20233;-79
2023/08/02 05:34:31;;;;;;;3.57;2.70;;;;;;;16.25;90.12;99014.03;5057493;28;20205;-79
2023/08/02 05:36:57;;;;;;;2.97;2.40;;;;;;;16.27;90.81;98999.84;5062707;28;20214;-80
2023/08/02 05:39:25;;;;;;;2.50;2.30;;;;;;;16.25;91.21;99007.00;5061754;28;20249;-81
2023/08/02 05:41:51;;;;;;;3.47;2.47;;;;;;;16.30;90.79;98995.34;5064194;28;20208;-80
2023/08/02 05:44:18;;;;;;;2.57;2.33;;;;;;;16.23;89.89;99018.56;5060906;28;20223;-81
2023/08/02 05:46:44;;;;;;;3.00;2.13;;;;;;;16.13;90.82;99017.47;5064622;28;20197;-80
2023/08/02 05:49:11;;;;;;;2.20;2.00;;;;;;;16.18;91.50;98984.66;5056652;28;20235;-80
2023/08/02 05:51:37;;;;;;;3.77;2.77;;;;;;;16.19;91.80;98967.06;5062341;28;20657;-80
2023/08/02 05:54:04;;;;;;;2.87;2.30;;;;;;;16.18;92.08;98952.22;5059715;28;20205;-79
2023/08/02 05:56:31;;;;;;;2.80;2.50;;;;;;;16.21;91.91;98952.00;5063275;28;20202;-82
2023/08/02 05:58:58;;;;;;;2.37;1.90;;;;;;;16.25;91.53;98943.81;5062253;28;20225;-80
2023/08/02 06:01:24;;;;;;;4.90;2.17;;;;;;;16.25;92.53;98930.66;5062120;28;20201;-80
2023/08/02 06:03:51;;;;;;;3.00;1.80;;;;;;;16.20;92.56;98911.69;5056486;28;20205;-82
2023/08/02 06:06:17;;;;;;;2.73;1.70;;;;;;;16.27;92.58;98898.94;5045757;28;20210;-83
2023/08/02 06:08:45;;;;;;;3.93;1.70;;;;;;;16.23;92.41;98884.28;5061621;28;20209;-82
2023/08/02 06:11:12;;;;;;;2.07;1.87;;;;;;;16.28;92.04;98903.28;5063052;28;20213;-81
2023/08/02 06:13:40;;;;;;;2.47;1.67;;;;;;;16.20;91.21;98919.56;5059838;28;20202;-82
2023/08/02 06:16:06;;;;;;;2.97;1.50;;;;;;;16.21;90.84;98937.06;5063546;28;20208;-80
2023/08/02 06:18:33;;;;;;;1.77;1.50;;;;;;;16.33;90.81;98931.91;5063471;28;20209;-81
2023/08/02 06:20:59;;;;;;;1.53;1.43;;;;;;;16.27;90.63;98936.66;5062419;28;20220;-80
2023/08/02 06:23:26;;;;;;;3.93;1.47;;;;;;;16.36;90.63;98939.63;5046744;28;20205;-81
2023/08/02 06:25:52;;;;;;;2.20;1.40;;;;;;;16.41;91.05;98938.38;5062755;28;20205;-80
2023/08/02 06:28:19;;;;;;;2.57;1.57;;;;;;;16.48;90.61;98931.72;5061568;28;20218;-82
2023/08/02 06:30:46;;;;;;;3.20;1.30;;;;;;;16.52;89.81;98944.69;5063922;28;20228;-81
2023/08/02 06:33:13;;;;;;;2.60;1.80;;;;;;;16.59;90.47;98935.41;5062103;28;20221;-81
2023/08/02 06:35:39;;;;;;;2.43;1.63;;;;;;;16.58;89.46;98947.75;5052921;28;20209;-77
2023/08/02 06:38:06;;;;;;;2.70;1.70;;;;;;;16.54;89.92;98938.38;5051419;28;20232;-80
2023/08/02 06:40:32;;;;;;;3.30;1.67;;;;;;;16.74;90.93;98934.38;5041458;28;20595;-77
2023/08/02 06:42:58;;;;;;;1.67;1.50;;;;;;;16.86;90.22;98930.09;5032743;28;20274;-77
2023/08/02 06:45:25;;;;;;;3.17;1.77;;;;;;;16.96;89.83;98948.75;5030740;28;20576;-77
2023/08/02 06:47:52;;;;;;;2.37;1.37;;;;;;;17.08;88.84;98953.16;5030576;28;20220;-77
2023/08/02 06:50:19;;;;;;;2.60;1.50;;;;;;;17.21;89.30;98946.09;5033638;28;20257;-78
2023/08/02 06:52:45;;;;;;;3.60;1.83;;;;;;;17.33;90.12;98931.19;5051566;28;20222;-77
2023/08/02 06:55:12;;;;;;;1.87;1.40;;;;;;;17.35;88.61;98942.47;5033925;28;20692;-77
2023/08/02 06:57:38;;;;;;;3.17;1.67;;;;;;;17.39;88.49;98953.66;5038110;28;20503;-76
2023/08/02 07:00:05;;;;;;;4.30;1.53;;;;;;;17.47;87.18;98980.34;5040229;28;20227;-76
2023/08/02 07:02:32;;;;;;;2.57;1.63;;;;;;;17.44;87.73;98976.13;5044122;28;20212;-75
2023/08/02 07:04:59;;;;;;;2.23;1.30;;;;;;;17.43;87.12;98995.53;5035740;28;20557;-77
2023/08/02 07:07:26;;;;;;;2.73;1.50;;;;;;;17.56;87.62;98982.31;5031127;28;20204;-78
2023/08/02 07:09:52;;;;;;;3.87;1.50;;;;;;;17.55;88.69;98963.97;5034174;28;20237;-78
2023/08/02 07:12:18;;;;;;;2.67;1.70;;;;;;;17.57;90.44;98912.75;5043624;28;20231;-77
2023/08/02 07:14:45;;;;;;;1.93;1.10;;;;;;;17.58;89.75;98903.91;5041184;28;20220;-76
2023/08/02 07:17:11;;;;;;;2.87;1.40;;;;;;;17.50;88.50;98902.75;5035114;28;20209;-76
2023/08/02 07:19:38;;;;;;;2.57;1.70;;;;;;;17.56;89.11;98900.53;5034991;28;20222;-76
2023/08/02 07:22:06;;;;;;;2.27;1.80;;;;;;;17.60;90.47;98872.97;5038591;28;20202;-76
2023/08/02 07:24:32;;;;;;;3.00;1.50;;;;;;;17.64;90.08;98860.38;5042359;28;20206;-77
2023/08/02 07:26:59;;;;;;;1.80;1.07;;;;;;;17.75;90.37;98852.50;5044119;28;20213;-77
2023/08/02 07:29:25;;;;;;;2.03;1.40;;;;;;;17.87;89.27;98863.97;5035333;28;20231;-77
2023/08/02 07:31:51;;;;;;;1.40;1.30;;;;;;;17.92;89.78;98879.47;5035085;28;20226;-78
2023/08/02 07:34:18;;;;;;;2.23;1.20;;;;;;;17.91;88.93;98897.13;5034610;28;20231;-77
2023/08/02 07:36:44;;;;;;;1.30;1.20;;;;;;;17.85;87.36;98926.59;5034991;28;20247;-77
2023/08/02 07:39:12;;;;;;;1.13;1.03;;;;;;;17.84;88.01;98933.69;5034424;28;20260;-77
2023/08/02 07:41:38;;;;;;;1.17;1.07;;;;;;;17.79;87.17;98951.63;5033340;28;20806;-77
2023/08/02 07:44:05;;;;;;;1.10;1.10;;;;;;;17.89;88.27;98919.31;5034616;28;20261;-78
2023/08/02 07:46:31;;;;;;;2.57;1.20;;;;;;;17.96;87.28;98915.28;5035698;28;20207;-77
2023/08/02 07:49:01;;;;;;;1.97;1.20;;;;;;;17.98;87.92;98916.00;5035651;28;20233;-77
2023/08/02 07:51:27;;;;;;;2.00;1.60;;;;;;;17.99;87.31;98929.06;5035345;28;20202;-78
2023/08/02 07:53:53;;;;;;;1.20;1.10;;;;;;;18.10;86.79;98922.19;5034884;28;20286;-77
2023/08/02 07:56:21;;;;;;;2.20;1.20;;;;;;;18.26;86.79;98920.91;5035170;28;20697;-79
2023/08/02 07:58:48;;;;;;;1.63;1.50;;;;;;;18.42;85.34;98944.34;5035745;28;20730;-77
2023/08/02 08:01:14;;;;;;;1.67;1.30;;;;;;;18.44;83.29;98973.31;5034866;28;20215;-78
2023/08/02 08:03:41;;;;;;;1.47;1.37;;;;;;;18.58;83.57;98988.97;5035076;28;20211;-77
2023/08/02 08:06:11;;;;;;;3.10;1.80;;;;;;;18.71;84.83;98970.41;5035281;28;20659;-77
2023/08/02 08:08:37;;;;;;;2.03;1.50;;;;;;;18.76;82.97;98985.88;5037447;28;20201;-78
2023/08/02 08:11:04;;;;;;;1.70;1.30;;;;;;;18.75;82.25;99011.50;5051208;28;20697;-78
2023/08/02 08:13:31;;;;;;;1.50;1.40;;;;;;;18.90;83.78;98985.69;5054245;28;20226;-78
2023/08/02 08:15:58;;;;;;;2.63;1.40;;;;;;;18.90;82.57;98985.69;5051669;28;20211;-77
2023/08/02 08:18:24;;;;;;;1.53;1.40;;;;;;;18.97;83.52;98979.00;5054376;28;20691;-77
2023/08/02 08:20:51;;;;;;;1.80;1.53;;;;;;;18.99;83.32;98981.53;5054088;28;20234;-77
2023/08/02 08:23:17;;;;;;;6.33;1.70;;;;;;;19.00;83.52;98967.31;5053229;28;20210;-77
2023/08/02 08:25:43;;;;;;;1.77;1.40;;;;;;;19.05;84.00;98951.97;5054198;28;20847;-77
2023/08/02 08:28:10;;;;;;;3.10;1.73;;;;;;;19.11;85.47;98938.25;5054021;28;20204;-78
2023/08/02 08:30:37;;;;;;;2.40;1.50;;;;;;;19.19;85.35;98905.91;5054465;28;20225;-77
2023/08/02 08:33:04;;;;;;;1.57;1.47;;;;;;;19.22;83.06;98934.75;5053999;28;20227;-77
2023/08/02 08:35:34;;;;;;;1.63;1.30;;;;;;;19.15;81.39;98997.88;5054215;28;20218;-76
2023/08/02 08:38:00;;;;;;;3.80;1.47;;;;;;;19.05;82.84;98988.97;5053792;28;20226;-77
2023/08/02 08:40:27;;;;;;;2.33;1.53;;;;;;;19.08;82.53;98988.72;5053902;28;20223;-77
2023/08/02 08:42:56;;;;;;;2.20;1.50;;;;;;;19.16;81.35;98998.72;5054124;28;20208;-77
2023/08/02 08:45:24;;;;;;;2.03;1.60;;;;;;;19.16;81.21;98996.91;5053676;28;20195;-77
2023/08/02 08:47:53;;;;;;;3.20;1.90;;;;;;;19.29;81.47;98983.56;5053321;28;20212;-76
2023/08/02 08:50:21;;;;;;;1.80;1.63;;;;;;;19.43;83.07;98962.16;5053338;28;20215;-76
2023/08/02 08:52:50;;;;;;;2.57;1.77;;;;;;;19.48;82.81;98964.41;5053127;28;20226;-76
2023/08/02 08:55:18;;;;;;;1.77;1.60;;;;;;;19.49;80.99;98968.78;5053901;28;20218;-77
2023/08/02 08:57:45;;;;;;;1.80;1.50;;;;;;;19.58;80.59;98986.56;5053652;28;20207;-76
2023/08/02 09:00:13;;;;;;;5.87;1.57;;;;;;;19.64;80.62;98979.91;5053710;28;20232;-78
2023/08/02 09:02:40;;;;;;;1.77;1.67;;;;;;;19.64;82.07;98946.38;5053772;28;20215;-78
2023/08/02 09:05:09;;;;;;;2.70;1.97;;;;;;;19.60;81.01;98971.41;5053250;28;20204;-77
2023/08/02 09:07:36;;;;;;;3.53;2.40;;;;;;;19.64;81.62;98951.66;5053562;28;20213;-77
2023/08/02 09:10:02;;;;;;;1.90;1.67;;;;;;;19.65;80.87;98963.09;5053305;28;20653;-77
2023/08/02 09:12:29;;;;;;;3.50;2.53;;;;;;;19.53;78.87;98999.31;5053428;28;20228;-76
2023/08/02 09:15:00;;;;;;;2.67;1.90;;;;;;;19.56;78.58;99001.75;5053457;28;20203;-76
2023/08/02 09:17:26;;;;;;;2.50;2.30;;;;;;;19.46;79.69;98987.53;5056153;28;20203;-79
2023/08/02 09:20:08;;;;;;;3.27;2.23;;;;;;;19.30;80.88;98955.31;5056080;28;20231;-80
2023/08/02 09:22:35;;;;;;;2.50;2.30;;;;;;;19.35;82.25;98913.47;5056290;28;20203;-78
2023/08/02 09:25:03;;;;;;;4.00;2.03;;;;;;;19.23;82.24;98894.94;5057694;28;20210;-78
2023/08/02 09:27:30;;;;;;;2.63;2.10;;;;;;;19.20;82.08;98902.28;5057776;28;20230;-79
2023/08/02 09:29:57;;;;;;;3.97;2.60;;;;;;;19.05;84.04;98856.75;5057012;28;20231;-78
2023/08/02 09:32:25;;;;;;;2.47;2.27;;;;;;;19.00;85.36;98804.19;5066997;28;20205;-80
2023/08/02 09:34:57;;;;;;;4.63;2.33;;;;;;;18.80;88.63;98721.19;5064231;28;20288;-79
2023/08/02 09:37:32;;;;;;;2.80;2.33;;;;;;;18.83;90.89;98673.38;5062372;28;20199;-78
2023/08/02 09:39:59;;;;;;;2.50;2.30;;;;;;;18.74;90.57;98652.09;5052397;28;20253;-80
2023/08/02 09:42:28;;;;;;;7.13;2.40;;;;;;;18.85;90.97;98626.50;5046518;28;20203;-81
2023/08/02 09:44:56;;;;;;;4.37;2.93;;;;;;;18.95;93.36;98578.13;5039013;28;20621;-80
2023/08/02 09:47:23;;;;;;;3.97;2.97;;;;;;;19.05;94.00;98552.63;5036401;28;20306;-80
2023/08/02 09:50:06;;;;;;;4.17;2.90;;;;;;;19.14;95.82;98514.78;5037746;28;20246;-81
2023/08/02 09:52:35;;;;;;;8.07;3.20;;;;;;;19.22;94.92;98522.06;5046663;28;20735;-80
2023/08/02 09:55:02;;;;;;;2.70;2.50;;;;;;;19.13;96.02;98497.25;5046202;28;20670;-81
2023/08/02 09:57:30;;;;;;;3.00;2.70;;;;;;;19.29;96.39;98486.19;5038111;28;20620;-80
2023/08/02 10:00:00;;;;;;;6.97;3.90;;;;;;;19.30;97.77;98468.50;5037568;28;20226;-80
2023/08/02 10:02:27;;;;;;;3.53;3.20;;;;;;;19.37;96.43;98477.59;5037960;28;20213;-81
2023/08/02 10:04:56;;;;;;;3.43;2.53;;;;;;;19.41;96.56;98479.84;5039427;28;20234;-80
2023/08/02 10:07:28;;;;;;;3.30;2.93;;;;;;;19.45;95.33;98491.00;5037626;28;20212;-79
2023/08/02 10:10:03;;;;;;;4.00;3.00;;;;;;;19.47;95.29;98491.69;5043547;28;20267;-79
2023/08/02 10:12:30;;;;;;;3.20;2.90;;;;;;;19.37;95.36;98482.91;5056929;28;20684;-79
2023/08/02 10:14:57;;;;;;;3.47;3.17;;;;;;;19.34;95.93;98483.16;5057954;28;20214;-82
2023/08/02 10:17:24;;;;;;;3.13;2.77;;;;;;;19.25;96.98;98468.91;5057763;28;20322;-83
2023/08/02 10:19:52;;;;;;;4.63;4.20;;;;;;;19.22;97.99;98445.38;5058162;28;20228;-81
2023/08/02 10:22:19;;;;;;;5.07;4.60;;;;;;;19.18;98.19;98428.09;5058136;28;20214;-81
2023/08/02 10:24:46;;;;;;;4.23;3.80;;;;;;;19.20;97.01;98440.19;5058322;28;20200;-81
2023/08/02 10:27:15;;;;;;;3.43;3.13;;;;;;;19.12;97.51;98429.44;5056461;28;20281;-80
2023/08/02 10:29:42;;;;;;;9.80;9.00;;;;;;;19.09;97.50;98437.66;5059658;28;20252;-82
2023/08/02 10:32:13;;;;;;;3.93;3.60;;;;;;;19.02;97.72;98429.41;5060319;28;20205;-81
2023/08/02 10:34:47;;;;;;;3.33;2.90;;;;;;;19.01;97.61;98425.09;5059196;28;20257;-80
2023/08/02 10:37:14;;;;;;;10.53;4.43;;;;;;;19.00;97.49;98436.63;5056993;28;20202;-79
2023/08/02 10:39:56;;;;;;;2.90;2.60;;;;;;;19.02;96.54;98447.91;5056706;28;20315;-80
2023/08/02 10:42:26;;;;;;;3.37;2.57;;;;;;;19.04;96.40;98443.34;5056311;28;20210;-79
2023/08/02 10:45:12;;;;;;;2.90;2.60;;;;;;;18.99;97.09;98428.84;5058247;28;20242;-80
2023/08/02 10:47:39;;;;;;;4.13;3.87;;;;;;;18.99;97.80;98408.53;5057192;28;20727;-80
2023/08/02 10:50:06;;;;;;;3.07;2.87;;;;;;;18.99;98.72;98379.44;5057726;28;20578;-81
2023/08/02 10:52:35;;;;;;;2.70;2.50;;;;;;;19.03;99.08;98358.88;5056378;28;20211;-81
2023/08/02 10:55:07;;;;;;;3.90;3.60;;;;;;;19.06;99.09;98361.22;5071857;28;20188;-81
2023/08/02 10:57:35;;;;;;;3.00;2.70;;;;;;;19.13;100.00;98325.34;5056777;28;20206;-80
2023/08/02 11:00:13;;;;;;;4.33;3.10;;;;;;;19.20;100.00;98315.06;5054493;28;20234;-78
2023/08/02 11:02:45;;;;;;;4.87;3.80;;;;;;;19.22;100.00;98313.09;5054580;28;20494;-81
2023/08/02 11:05:11;;;;;;;3.17;2.87;;;;;;;19.22;100.00;98303.34;5058672;28;20239;-81
2023/08/02 11:07:38;;;;;;;2.60;2.40;;;;;;;19.29;99.22;98335.41;5059676;28;20207;-80
2023/08/02 11:10:05;;;;;;;2.73;2.53;;;;;;;19.33;97.92;98362.44;5056598;28;20242;-80
2023/08/02 11:12:33;;;;;;;2.83;2.63;;;;;;;19.20;98.23;98355.56;5058906;28;20212;-82
2023/08/02 11:15:01;;;;;;;2.60;2.30;;;;;;;19.11;99.13;98340.53;5056946;28;20228;-82
2023/08/02 11:17:28;;;;;;;2.50;2.30;;;;;;;18.97;100.00;98302.06;5060441;28;20611;-80
2023/08/02 11:19:55;;;;;;;3.23;2.53;;;;;;;18.86;100.00;98267.78;5057613;28;20222;-80
2023/08/02 11:22:21;;;;;;;2.87;2.67;;;;;;;18.90;100.00;98253.34;5059608;28;20211;-82
2023/08/02 11:24:51;;;;;;;3.03;2.73;;;;;;;18.98;100.00;98234.16;5056847;28;20212;-81
2023/08/02 11:27:18;;;;;;;3.40;3.13;;;;;;;19.09;100.00;98225.25;5055607;28;20447;-82
2023/08/02 11:29:56;;;;;;;2.40;2.20;;;;;;;19.20;100.00;98230.41;5061077;28;20218;-81
2023/08/02 11:32:24;;;;;;;4.37;2.77;;;;;;;19.22;100.00;98184.31;5058905;28;20215;-79
2023/08/02 11:34:51;;;;;;;2.87;2.57;;;;;;;19.35;100.00;98175.28;5058812;28;20298;-80